createdAt,value
2022-10-09T00:01:23.455Z,5.00
2022-10-09T00:03:52.881Z,5.37
2022-10-09T00:06:23.260Z,5.07
2022-10-09T00:08:50.949Z,5.33
2022-10-09T00:11:24.586Z,5.47
2022-10-09T00:13:52.946Z,4.97
2022-10-09T00:16:22.875Z,5.00
2022-10-09T00:18:51.201Z,4.30
2022-10-09T00:21:23.558Z,4.83
2022-10-09T00:23:52.271Z,4.03
2022-10-09T00:26:20.164Z,4.30
2022-10-09T00:28:47.466Z,3.93
2022-10-09T00:31:16.481Z,4.47
2022-10-09T00:33:43.882Z,4.50
2022-10-09T00:36:22.811Z,4.50
2022-10-09T00:38:50.653Z,4.50
2022-10-09T00:41:27.246Z,4.17
2022-10-09T00:43:57.759Z,3.73
2022-10-09T00:46:37.967Z,4.30
2022-10-09T00:49:29.117Z,4.13
2022-10-09T00:52:00.036Z,3.70
2022-10-09T00:54:31.607Z,3.37
2022-10-09T00:56:59.309Z,3.60
2022-10-09T00:59:26.883Z,3.90
2022-10-09T01:01:54.392Z,4.00
2022-10-09T01:04:21.576Z,4.13
2022-10-09T01:07:29.524Z,3.97
2022-10-09T01:10:18.569Z,4.57
2022-10-09T01:13:28.487Z,4.53
2022-10-09T01:16:01.720Z,4.27
2022-10-09T01:18:49.764Z,5.20
2022-10-09T01:21:19.697Z,4.63
2022-10-09T01:23:58.494Z,5.53
2022-10-09T01:26:44.392Z,4.97
2022-10-09T01:29:13.267Z,5.53
2022-10-09T01:31:44.184Z,5.23
2022-10-09T01:34:13.980Z,5.20
2022-10-09T01:36:43.293Z,5.03
2022-10-09T01:39:18.015Z,4.87
2022-10-09T01:41:48.068Z,5.10
2022-10-09T01:44:17.036Z,5.13
2022-10-09T01:46:44.245Z,5.10
2022-10-09T01:49:25.243Z,4.73
2022-10-09T01:52:02.084Z,5.67
2022-10-09T01:54:50.336Z,4.93
2022-10-09T01:57:26.976Z,5.17
2022-10-09T01:59:57.583Z,5.30
2022-10-09T02:02:25.598Z,5.43
2022-10-09T02:04:53.901Z,5.00
2022-10-09T02:07:22.790Z,5.50
2022-10-09T02:09:50.233Z,5.20
2022-10-09T02:12:18.870Z,4.83
2022-10-09T02:14:46.062Z,4.27
2022-10-09T02:17:18.109Z,4.53
2022-10-09T02:19:54.759Z,4.80
2022-10-09T02:22:26.056Z,4.77
2022-10-09T02:24:53.525Z,4.90
2022-10-09T02:27:21.896Z,4.50
2022-10-09T02:29:50.071Z,4.80
2022-10-09T02:32:17.709Z,4.47
2022-10-09T02:34:45.050Z,4.50
2022-10-09T02:37:13.430Z,4.80
2022-10-09T02:39:43.049Z,5.00
2022-10-09T02:42:10.419Z,5.27
2022-10-09T02:44:37.655Z,5.20
2022-10-09T02:47:04.731Z,4.60
2022-10-09T02:49:31.863Z,4.90
2022-10-09T02:51:59.037Z,6.23
2022-10-09T02:54:25.930Z,5.60
2022-10-09T02:56:54.003Z,5.50
2022-10-09T02:59:21.459Z,5.70
2022-10-09T03:01:48.680Z,6.00
2022-10-09T03:04:15.874Z,6.03
2022-10-09T03:06:42.981Z,6.17
2022-10-09T03:09:10.096Z,6.30
2022-10-09T03:11:37.036Z,6.07
2022-10-09T03:14:04.168Z,6.40
2022-10-09T03:16:31.199Z,6.57
2022-10-09T03:18:58.662Z,6.60
2022-10-09T03:21:27.730Z,8.23
2022-10-09T03:23:55.349Z,6.53
2022-10-09T03:26:26.891Z,6.40
2022-10-09T03:28:55.485Z,5.87
2022-10-09T03:31:51.847Z,7.23
2022-10-09T03:34:13.066Z,6.80
2022-10-09T03:36:40.403Z,7.57
2022-10-09T03:39:07.492Z,6.90
2022-10-09T03:41:34.731Z,6.47
2022-10-09T03:44:01.682Z,6.70
2022-10-09T03:46:28.819Z,6.23
2022-10-09T03:48:56.076Z,6.40
2022-10-09T03:51:23.066Z,6.50
2022-10-09T03:53:50.106Z,6.77
2022-10-09T03:56:17.375Z,6.40
2022-10-09T03:58:44.307Z,6.77
2022-10-09T04:01:11.381Z,6.30
2022-10-09T04:03:38.673Z,6.83
2022-10-09T04:06:06.096Z,6.50
2022-10-09T04:08:33.021Z,7.50
2022-10-09T04:11:00.938Z,6.70
2022-10-09T04:13:28.272Z,7.13
2022-10-09T04:15:56.173Z,7.43
2022-10-09T04:18:23.938Z,7.00
2022-10-09T04:20:53.064Z,7.27
2022-10-09T04:23:21.386Z,6.90
2022-10-09T04:25:49.111Z,6.23
2022-10-09T04:28:16.080Z,7.00
2022-10-09T04:30:43.062Z,6.77
2022-10-09T04:33:12.996Z,7.23
2022-10-09T04:35:44.278Z,7.63
2022-10-09T04:38:12.492Z,7.50
2022-10-09T04:40:39.518Z,7.17
2022-10-09T04:43:06.547Z,8.20
2022-10-09T04:45:33.830Z,8.33
2022-10-09T04:48:00.791Z,7.30
2022-10-09T04:50:27.756Z,7.33
2022-10-09T04:52:54.994Z,7.47
2022-10-09T04:55:21.963Z,7.63
2022-10-09T04:57:48.901Z,7.80
2022-10-09T05:00:16.195Z,8.33
2022-10-09T05:02:43.130Z,7.67
2022-10-09T05:05:10.135Z,8.60
2022-10-09T05:07:39.043Z,8.53
2022-10-09T05:10:06.835Z,8.67
2022-10-09T05:12:33.849Z,8.33
2022-10-09T05:15:01.035Z,8.97
2022-10-09T05:17:28.044Z,8.03
2022-10-09T05:19:55.057Z,9.13
2022-10-09T05:22:22.420Z,9.77
2022-10-09T05:24:49.352Z,9.57
2022-10-09T05:27:16.337Z,9.47
2022-10-09T05:29:43.503Z,9.97
2022-10-09T05:32:10.529Z,9.17
2022-10-09T05:34:37.612Z,9.73
2022-10-09T05:37:05.010Z,9.13
2022-10-09T05:39:32.530Z,9.33
2022-10-09T05:41:59.487Z,9.50
2022-10-09T05:44:26.766Z,9.10
2022-10-09T05:46:53.867Z,9.43
2022-10-09T05:49:21.089Z,8.27
2022-10-09T05:51:49.895Z,8.73
2022-10-09T05:54:18.165Z,8.43
2022-10-09T05:56:46.049Z,8.60
2022-10-09T05:59:15.846Z,9.03
2022-10-09T06:01:46.653Z,9.47
2022-10-09T06:04:19.375Z,8.20
2022-10-09T06:06:50.099Z,9.07
2022-10-09T06:09:19.621Z,8.73
2022-10-09T06:11:46.804Z,8.83
2022-10-09T06:14:14.282Z,8.20
2022-10-09T06:16:43.458Z,8.57
2022-10-09T06:19:16.068Z,8.90
2022-10-09T06:21:44.240Z,7.83
2022-10-09T06:24:27.878Z,8.30
2022-10-09T06:26:55.959Z,9.03
2022-10-09T06:29:23.067Z,8.50
2022-10-09T06:31:49.993Z,9.50
2022-10-09T06:34:17.385Z,8.80
2022-10-09T06:36:44.387Z,8.13
2022-10-09T06:39:11.717Z,9.20
2022-10-09T06:41:38.936Z,8.30
2022-10-09T06:44:10.808Z,9.30
2022-10-09T06:46:41.996Z,9.90
2022-10-09T06:49:10.765Z,9.73
2022-10-09T06:51:38.260Z,9.20
2022-10-09T06:54:11.705Z,9.30
2022-10-09T06:56:38.809Z,9.00
2022-10-09T06:59:07.300Z,8.63
2022-10-09T07:01:35.256Z,7.70
2022-10-09T07:04:13.222Z,8.00
2022-10-09T07:06:44.175Z,7.27
2022-10-09T07:09:13.595Z,7.50
2022-10-09T07:11:43.534Z,7.10
2022-10-09T07:14:12.186Z,6.10
2022-10-09T07:16:41.614Z,5.70
2022-10-09T07:19:11.292Z,7.00
2022-10-09T07:21:41.931Z,7.27
2022-10-09T07:24:09.601Z,6.73
2022-10-09T07:26:39.295Z,6.43
2022-10-09T07:29:08.517Z,5.90
2022-10-09T07:31:35.743Z,6.47
2022-10-09T07:34:03.134Z,6.00
2022-10-09T07:36:30.354Z,5.93
2022-10-09T07:38:58.944Z,5.60
2022-10-09T07:41:28.849Z,5.07
2022-10-09T07:43:56.586Z,5.33
2022-10-09T07:46:27.676Z,5.87
2022-10-09T07:48:58.152Z,5.17
2022-10-09T07:51:27.419Z,4.67
2022-10-09T07:53:54.403Z,4.67
2022-10-09T07:56:26.787Z,5.13
2022-10-09T07:58:56.368Z,5.33
2022-10-09T08:01:25.282Z,5.53
2022-10-09T08:03:52.348Z,5.33
2022-10-09T08:06:20.013Z,6.00
2022-10-09T08:08:55.627Z,5.57
2022-10-09T08:11:25.373Z,6.03
2022-10-09T08:13:53.150Z,6.10
2022-10-09T08:16:23.612Z,6.30
2022-10-09T08:18:58.572Z,6.20
2022-10-09T08:21:27.903Z,6.47
2022-10-09T08:23:57.449Z,7.47
2022-10-09T08:26:26.619Z,7.83
2022-10-09T08:29:02.609Z,7.60
2022-10-09T08:31:30.233Z,8.23
2022-10-09T08:33:59.722Z,7.87
2022-10-09T08:36:27.498Z,8.03
2022-10-09T08:38:55.250Z,7.93
2022-10-09T08:41:42.817Z,8.03
2022-10-09T08:44:20.435Z,8.03
2022-10-09T08:47:19.126Z,8.03
2022-10-09T08:49:55.869Z,7.63
2022-10-09T08:52:35.116Z,7.87
2022-10-09T08:55:22.364Z,8.00
2022-10-09T08:57:55.567Z,8.20
2022-10-09T09:00:39.534Z,8.43
2022-10-09T09:03:09.344Z,7.70
2022-10-09T09:05:59.125Z,9.40
2022-10-09T09:08:26.303Z,8.47
2022-10-09T09:11:21.411Z,8.60
2022-10-09T09:13:54.755Z,8.20
2022-10-09T09:16:28.575Z,8.37
2022-10-09T09:19:29.159Z,7.67
2022-10-09T09:21:57.440Z,7.43
2022-10-09T09:24:41.362Z,7.27
2022-10-09T09:27:16.387Z,7.03
2022-10-09T09:29:58.515Z,7.00
2022-10-09T09:32:28.937Z,6.37
2022-10-09T09:35:06.857Z,5.93
2022-10-09T09:37:34.040Z,6.80
2022-10-09T09:40:35.387Z,6.07
2022-10-09T09:42:48.595Z,6.43
2022-10-09T09:45:24.411Z,5.80
2022-10-09T09:48:06.475Z,5.80
2022-10-09T09:50:52.922Z,6.50
2022-10-09T09:53:39.743Z,5.57
2022-10-09T09:56:07.557Z,4.97
2022-10-09T09:58:44.931Z,4.60
2022-10-09T10:01:20.411Z,4.30
2022-10-09T10:03:53.572Z,3.67
2022-10-09T10:06:42.066Z,4.40
2022-10-09T10:09:19.705Z,3.93
2022-10-09T10:11:58.461Z,3.73
2022-10-09T10:14:26.275Z,4.73
2022-10-09T10:16:56.567Z,4.27
2022-10-09T10:19:29.932Z,4.47
2022-10-09T10:22:03.319Z,4.67
2022-10-09T10:24:42.756Z,4.97
2022-10-09T10:27:17.937Z,4.93
2022-10-09T10:29:47.818Z,5.33
2022-10-09T10:32:35.980Z,4.80
2022-10-09T10:35:05.420Z,5.30
2022-10-09T10:37:50.806Z,5.50
2022-10-09T10:40:48.021Z,5.83
2022-10-09T10:43:21.213Z,6.10
2022-10-09T10:45:57.484Z,6.57
2022-10-09T10:48:41.730Z,6.40
2022-10-09T10:51:08.617Z,6.67
2022-10-09T10:53:50.919Z,7.03
2022-10-09T10:56:41.131Z,7.07
2022-10-09T10:59:08.243Z,6.57
2022-10-09T11:01:52.319Z,6.97
2022-10-09T11:04:48.881Z,6.70
2022-10-09T11:07:26.415Z,6.13
2022-10-09T11:10:12.317Z,5.93
2022-10-09T11:13:01.113Z,5.33
2022-10-09T11:15:45.402Z,5.60
2022-10-09T11:18:31.386Z,4.03
2022-10-09T11:21:27.974Z,3.60
2022-10-09T11:24:13.522Z,3.47
2022-10-09T11:26:49.379Z,3.30
2022-10-09T11:29:40.175Z,4.07
2022-10-09T11:32:17.378Z,4.90
2022-10-09T11:35:01.866Z,5.57
2022-10-09T11:37:35.098Z,4.73
2022-10-09T11:40:24.581Z,5.80
2022-10-09T11:42:59.254Z,5.87
2022-10-09T11:45:36.818Z,6.70
2022-10-09T11:48:18.716Z,5.50
2022-10-09T11:50:45.627Z,6.30
2022-10-09T11:53:18.769Z,5.70
2022-10-09T11:55:48.166Z,5.20
2022-10-09T11:58:25.929Z,5.37
2022-10-09T12:00:55.711Z,5.00
2022-10-09T12:03:35.862Z,6.80
2022-10-09T12:06:15.735Z,4.93
2022-10-09T12:09:03.338Z,4.40
2022-10-09T12:11:32.245Z,3.83
2022-10-09T12:14:02.748Z,3.70
2022-10-09T12:16:41.113Z,3.77
2022-10-09T12:19:23.555Z,3.80
2022-10-09T12:22:13.641Z,4.43
2022-10-09T12:24:45.195Z,4.07
2022-10-09T12:27:21.917Z,3.57
2022-10-09T12:29:55.298Z,3.10
2022-10-09T12:32:31.621Z,3.43
2022-10-09T12:35:00.905Z,2.90
2022-10-09T12:37:34.825Z,3.00
2022-10-09T12:40:29.791Z,3.30
2022-10-09T12:42:58.514Z,3.07
2022-10-09T12:45:30.628Z,3.50
2022-10-09T12:48:00.995Z,2.90
2022-10-09T12:50:33.106Z,2.77
2022-10-09T12:53:03.946Z,3.00
2022-10-09T12:55:36.635Z,2.70
2022-10-09T12:58:08.120Z,3.03
2022-10-09T13:00:35.828Z,2.37
2022-10-09T13:03:03.007Z,2.80
2022-10-09T13:05:41.296Z,3.17
2022-10-09T13:08:28.022Z,3.40
2022-10-09T13:10:55.743Z,3.53
2022-10-09T13:13:27.749Z,3.43
2022-10-09T13:16:00.787Z,3.17
2022-10-09T13:18:30.098Z,3.33
2022-10-09T13:21:18.086Z,3.33
2022-10-09T13:23:45.892Z,3.30
2022-10-09T13:26:27.752Z,3.80
2022-10-09T13:28:57.018Z,3.60
2022-10-09T13:31:25.035Z,3.10
2022-10-09T13:33:53.187Z,3.60
2022-10-09T13:36:20.761Z,3.33
2022-10-09T13:38:49.154Z,3.30
2022-10-09T13:41:21.401Z,3.20
2022-10-09T13:43:50.334Z,2.97
2022-10-09T13:46:17.406Z,3.30
2022-10-09T13:48:44.817Z,2.97
2022-10-09T13:51:12.204Z,3.50
2022-10-09T13:53:39.199Z,3.80
2022-10-09T13:56:08.544Z,3.30
2022-10-09T13:58:36.798Z,3.70
2022-10-09T14:01:04.035Z,4.00
2022-10-09T14:03:31.205Z,3.87
2022-10-09T14:06:03.841Z,3.90
2022-10-09T14:08:31.407Z,4.27
2022-10-09T14:11:02.020Z,3.73
2022-10-09T14:13:29.960Z,3.90
2022-10-09T14:15:57.103Z,3.90
2022-10-09T14:18:24.156Z,3.90
2022-10-09T14:20:51.336Z,3.80
2022-10-09T14:23:18.344Z,3.50
2022-10-09T14:25:45.377Z,3.63
2022-10-09T14:28:12.594Z,4.07
2022-10-09T14:30:41.538Z,3.77
2022-10-09T14:33:08.833Z,3.70
2022-10-09T14:35:36.338Z,3.47
2022-10-09T14:38:03.475Z,4.30
2022-10-09T14:40:30.858Z,4.17
2022-10-09T14:42:57.830Z,4.73
2022-10-09T14:45:25.166Z,3.77
2022-10-09T14:47:52.448Z,3.80
2022-10-09T14:50:19.537Z,3.83
2022-10-09T14:52:46.629Z,3.87
2022-10-09T14:55:13.940Z,4.03
2022-10-09T14:57:41.308Z,3.80
2022-10-09T15:00:09.069Z,3.60
2022-10-09T15:02:36.477Z,3.97
2022-10-09T15:05:04.434Z,3.90
2022-10-09T15:07:34.197Z,4.67
2022-10-09T15:10:01.776Z,3.80
2022-10-09T15:12:28.929Z,3.87
2022-10-09T15:14:56.117Z,4.07
2022-10-09T15:17:23.286Z,4.20
2022-10-09T15:19:50.276Z,3.53
2022-10-09T15:22:17.275Z,4.20
2022-10-09T15:24:44.632Z,3.80
2022-10-09T15:27:11.677Z,3.90
2022-10-09T15:29:38.764Z,3.67
2022-10-09T15:32:06.066Z,3.90
2022-10-09T15:34:33.619Z,3.77
2022-10-09T15:37:01.762Z,4.00
2022-10-09T15:39:28.967Z,3.83
2022-10-09T15:41:55.936Z,3.57
2022-10-09T15:44:22.965Z,4.40
2022-10-09T15:46:50.204Z,4.23
2022-10-09T15:49:17.945Z,4.80
2022-10-09T15:51:44.983Z,4.77
2022-10-09T15:54:14.326Z,4.50
2022-10-09T15:56:42.319Z,4.50
2022-10-09T15:59:13.451Z,4.27
2022-10-09T16:01:40.665Z,5.03
2022-10-09T16:04:07.680Z,4.53
2022-10-09T16:06:35.161Z,5.20
2022-10-09T16:09:04.092Z,4.43
2022-10-09T16:11:31.898Z,4.90
2022-10-09T16:13:59.447Z,5.30
2022-10-09T16:16:27.762Z,5.80
2022-10-09T16:18:56.288Z,6.43
2022-10-09T16:21:26.682Z,6.20
2022-10-09T16:23:58.497Z,6.27
2022-10-09T16:26:28.298Z,5.40
2022-10-09T16:28:55.557Z,5.23
2022-10-09T16:31:25.948Z,5.90
2022-10-09T16:33:53.585Z,5.07
2022-10-09T16:36:20.751Z,5.73
2022-10-09T16:38:48.375Z,6.50
2022-10-09T16:41:19.098Z,5.97
2022-10-09T16:43:48.355Z,6.20
2022-10-09T16:46:21.829Z,5.87
2022-10-09T16:48:49.689Z,5.90
2022-10-09T16:51:20.914Z,6.23
2022-10-09T16:53:52.706Z,6.03
2022-10-09T16:56:23.968Z,6.40
2022-10-09T16:58:55.614Z,6.63
2022-10-09T17:01:23.259Z,6.97
2022-10-09T17:03:50.435Z,7.10
2022-10-09T17:06:23.664Z,6.13
2022-10-09T17:08:53.552Z,6.43
2022-10-09T17:11:21.900Z,6.17
2022-10-09T17:13:49.095Z,5.80
2022-10-09T17:16:19.289Z,6.37
2022-10-09T17:18:47.687Z,5.83
2022-10-09T17:21:16.971Z,5.23
2022-10-09T17:23:44.590Z,6.23
2022-10-09T17:26:15.452Z,6.10
2022-10-09T17:28:42.986Z,6.43
2022-10-09T17:31:14.278Z,6.60
2022-10-09T17:33:44.849Z,6.30
2022-10-09T17:36:15.387Z,6.70
2022-10-09T17:38:42.449Z,6.60
2022-10-09T17:41:11.582Z,7.67
2022-10-09T17:43:39.261Z,6.80
2022-10-09T17:46:06.742Z,6.50
2022-10-09T17:48:34.705Z,6.73
2022-10-09T17:51:06.212Z,6.37
2022-10-09T17:53:33.621Z,6.90
2022-10-09T17:56:04.340Z,6.10
2022-10-09T17:58:31.351Z,6.20
2022-10-09T18:00:58.665Z,6.70
2022-10-09T18:03:25.728Z,6.53
2022-10-09T18:05:52.643Z,6.77
2022-10-09T18:08:20.063Z,6.57
2022-10-09T18:10:47.171Z,6.30
2022-10-09T18:13:14.293Z,6.37
2022-10-09T18:15:44.648Z,6.57
2022-10-09T18:18:12.213Z,5.67
2022-10-09T18:20:40.295Z,6.53
2022-10-09T18:23:08.606Z,6.17
2022-10-09T18:25:40.788Z,6.90
2022-10-09T18:28:08.293Z,6.97
2022-10-09T18:30:41.193Z,6.63
2022-10-09T18:33:08.180Z,6.80
2022-10-09T18:35:36.823Z,7.27
2022-10-09T18:38:04.896Z,6.63
2022-10-09T18:40:33.168Z,7.17
2022-10-09T18:43:00.242Z,6.90
2022-10-09T18:45:28.056Z,6.70
2022-10-09T18:47:55.539Z,6.77
2022-10-09T18:50:23.499Z,6.93
2022-10-09T18:52:50.962Z,7.07
2022-10-09T18:55:19.139Z,7.63
2022-10-09T18:57:47.054Z,7.20
2022-10-09T19:00:15.647Z,7.63
2022-10-09T19:02:42.850Z,7.30
2022-10-09T19:05:10.291Z,7.70
2022-10-09T19:07:37.470Z,8.03
2022-10-09T19:10:06.847Z,7.53
2022-10-09T19:12:33.856Z,7.53
2022-10-09T19:15:01.257Z,7.77
2022-10-09T19:17:28.274Z,8.00
2022-10-09T19:19:56.147Z,7.23
2022-10-09T19:22:24.154Z,6.83
2022-10-09T19:24:51.536Z,7.90
2022-10-09T19:27:18.756Z,7.97
2022-10-09T19:29:45.953Z,8.13
2022-10-09T19:32:13.447Z,9.83
2022-10-09T19:34:40.464Z,11.00
2022-10-09T19:37:07.656Z,10.00
2022-10-09T19:39:34.693Z,9.30
2022-10-09T19:42:02.067Z,8.93
2022-10-09T19:44:29.171Z,8.37
2022-10-09T19:46:56.488Z,8.97
2022-10-09T19:49:23.483Z,9.63
2022-10-09T19:51:50.835Z,9.60
2022-10-09T19:54:17.904Z,10.57
2022-10-09T19:56:45.076Z,10.37
2022-10-09T19:59:12.140Z,10.27
2022-10-09T20:01:40.456Z,10.33
2022-10-09T20:04:10.364Z,11.63
2022-10-09T20:06:40.270Z,10.07
2022-10-09T20:09:08.220Z,9.90
2022-10-09T20:11:35.489Z,8.80
2022-10-09T20:14:03.814Z,9.83
2022-10-09T20:16:32.210Z,9.00
2022-10-09T20:19:01.646Z,9.67
2022-10-09T20:21:31.187Z,9.73
2022-10-09T20:23:59.440Z,8.83
2022-10-09T20:26:27.090Z,9.53
2022-10-09T20:28:54.203Z,9.83
2022-10-09T20:31:24.094Z,9.43
2022-10-09T20:33:52.508Z,11.30
2022-10-09T20:36:28.448Z,10.57
2022-10-09T20:39:00.458Z,10.07
2022-10-09T20:41:30.233Z,9.40
2022-10-09T20:43:59.483Z,10.70
2022-10-09T20:46:29.444Z,9.80
2022-10-09T20:48:57.274Z,11.20
2022-10-09T20:51:25.601Z,10.60
2022-10-09T20:53:58.135Z,10.77
2022-10-09T20:56:27.750Z,11.00
2022-10-09T20:58:55.740Z,10.57
2022-10-09T21:01:23.730Z,10.77
2022-10-09T21:03:51.183Z,9.87
2022-10-09T21:06:21.147Z,9.80
2022-10-09T21:08:48.408Z,10.53
2022-10-09T21:11:19.913Z,9.60
2022-10-09T21:13:48.486Z,9.97
2022-10-09T21:16:21.803Z,10.13
2022-10-09T21:18:53.277Z,10.37
2022-10-09T21:21:20.578Z,10.07
2022-10-09T21:23:50.987Z,9.43
2022-10-09T21:26:20.154Z,9.80
2022-10-09T21:28:47.364Z,9.90
2022-10-09T21:31:23.405Z,9.17
2022-10-09T21:33:50.732Z,9.83
2022-10-09T21:37:16.415Z,10.53
2022-10-09T21:39:38.305Z,9.63
2022-10-09T21:42:05.634Z,9.83
2022-10-09T21:44:32.709Z,10.83
2022-10-09T21:46:59.851Z,10.60
2022-10-09T21:49:27.705Z,11.37
2022-10-09T21:51:55.603Z,11.07
2022-10-09T21:54:22.677Z,12.87
2022-10-09T21:56:49.767Z,11.57
2022-10-09T21:59:17.019Z,12.50
2022-10-09T22:01:44.140Z,11.57
2022-10-09T22:04:11.190Z,11.80
2022-10-09T22:06:38.430Z,11.90
2022-10-09T22:09:05.443Z,10.63
2022-10-09T22:11:32.616Z,11.00
2022-10-09T22:13:59.619Z,10.53
2022-10-09T22:16:26.569Z,12.17
2022-10-09T22:18:53.785Z,11.60
2022-10-09T22:21:22.849Z,12.43
2022-10-09T22:23:50.649Z,11.23
2022-10-09T22:26:20.729Z,10.83
2022-10-09T22:28:49.169Z,11.50
2022-10-09T22:31:21.899Z,12.60
2022-10-09T22:34:00.071Z,11.80
2022-10-09T22:36:30.002Z,11.33
2022-10-09T22:38:58.824Z,12.87
2022-10-09T22:41:27.587Z,12.93
2022-10-09T22:43:57.444Z,10.80
2022-10-09T22:46:33.118Z,11.73
2022-10-09T22:49:00.994Z,12.40
2022-10-09T22:51:29.799Z,12.27
2022-10-09T22:53:58.627Z,11.00
2022-10-09T22:56:30.140Z,10.83
2022-10-09T22:58:59.135Z,13.13
2022-10-09T23:01:39.752Z,11.73
2022-10-09T23:04:10.695Z,11.33
2022-10-09T23:06:38.090Z,11.67
2022-10-09T23:09:06.967Z,11.53
2022-10-09T23:11:34.597Z,12.43
2022-10-09T23:14:02.545Z,12.40
2022-10-09T23:16:30.597Z,12.60
2022-10-09T23:19:04.177Z,13.23
2022-10-09T23:21:33.485Z,12.53
2022-10-09T23:24:00.713Z,11.83
2022-10-09T23:26:30.582Z,13.80
2022-10-09T23:29:00.874Z,13.67
2022-10-09T23:31:29.041Z,13.13
2022-10-09T23:33:57.117Z,13.00
2022-10-09T23:36:26.700Z,15.70
2022-10-09T23:38:54.895Z,15.17
2022-10-09T23:41:25.476Z,14.53
2022-10-09T23:43:53.618Z,15.13
2022-10-09T23:46:26.441Z,15.57
2022-10-09T23:48:54.442Z,15.83
2022-10-09T23:51:23.046Z,17.07
2022-10-09T23:53:50.353Z,17.03
2022-10-09T23:56:23.230Z,15.73
2022-10-09T23:58:51.919Z,16.77
